createdAt,value
2018-04-15T00:00:45.988Z,6.37
2018-04-15T00:03:13.456Z,7.60
2018-04-15T00:05:40.956Z,6.97
2018-04-15T00:08:08.438Z,7.93
2018-04-15T00:10:35.929Z,7.47
2018-04-15T00:13:03.420Z,6.30
2018-04-15T00:15:30.893Z,7.67
2018-04-15T00:17:59.129Z,7.77
2018-04-15T00:20:26.598Z,7.10
2018-04-15T00:22:54.048Z,8.27
2018-04-15T00:25:21.535Z,9.50
2018-04-15T00:27:49.768Z,7.20
2018-04-15T00:30:17.248Z,7.10
2018-04-15T00:32:44.728Z,6.90
2018-04-15T00:35:12.965Z,8.00
2018-04-15T00:37:40.430Z,7.10
2018-04-15T00:40:07.939Z,7.10
2018-04-15T00:42:35.415Z,6.63
2018-04-15T00:45:02.873Z,6.67
2018-04-15T00:47:30.343Z,7.57
2018-04-15T00:49:57.805Z,7.17
2018-04-15T00:52:25.283Z,6.93
2018-04-15T00:54:52.744Z,8.03
2018-04-15T00:57:20.230Z,6.30
2018-04-15T00:59:48.455Z,6.93
2018-04-15T01:02:16.060Z,7.37
2018-04-15T01:04:43.517Z,7.20
2018-04-15T01:07:10.994Z,6.83
2018-04-15T01:09:39.238Z,11.40
2018-04-15T01:12:06.730Z,9.37
2018-04-15T01:14:34.974Z,12.10
2018-04-15T01:17:02.445Z,7.63
2018-04-15T01:19:29.926Z,8.50
2018-04-15T01:21:58.160Z,7.40
2018-04-15T01:24:25.625Z,7.33
2018-04-15T01:26:53.089Z,8.00
2018-04-15T01:29:20.561Z,7.70
2018-04-15T01:31:48.032Z,11.63
2018-04-15T01:34:16.281Z,7.73
2018-04-15T01:36:43.742Z,8.03
2018-04-15T01:39:11.224Z,11.53
2018-04-15T01:41:39.449Z,9.73
2018-04-15T01:44:06.939Z,8.93
2018-04-15T01:46:34.409Z,12.13
2018-04-15T01:49:01.881Z,9.10
2018-04-15T01:51:30.132Z,9.90
2018-04-15T01:53:57.605Z,10.47
2018-04-15T01:56:25.851Z,11.63
2018-04-15T01:58:53.328Z,12.80
2018-04-15T02:01:20.788Z,13.00
2018-04-15T02:03:48.268Z,10.67
2018-04-15T02:06:16.592Z,11.77
2018-04-15T02:08:44.056Z,8.80
2018-04-15T02:11:11.523Z,10.50
2018-04-15T02:13:38.991Z,10.43
2018-04-15T02:16:06.490Z,12.73
2018-04-15T02:18:34.728Z,11.00
2018-04-15T02:21:02.206Z,11.93
2018-04-15T02:23:30.446Z,10.37
2018-04-15T02:25:57.935Z,11.37
2018-04-15T02:28:25.411Z,11.73
2018-04-15T02:30:53.653Z,11.17
2018-04-15T02:33:21.127Z,11.73
2018-04-15T02:35:49.096Z,12.80
2018-04-15T02:38:16.565Z,15.00
2018-04-15T02:40:44.821Z,13.67
2018-04-15T02:43:12.282Z,17.20
2018-04-15T02:45:39.760Z,18.47
2018-04-15T02:48:08.015Z,14.43
2018-04-15T02:50:35.520Z,14.80
2018-04-15T02:53:03.007Z,13.37
2018-04-15T02:55:30.487Z,12.67
2018-04-15T02:57:57.952Z,16.43
2018-04-15T03:00:25.416Z,15.83
2018-04-15T03:02:52.985Z,11.53
2018-04-15T03:05:20.480Z,13.10
2018-04-15T03:07:47.949Z,10.87
2018-04-15T03:10:15.425Z,10.70
2018-04-15T03:12:42.895Z,14.23
2018-04-15T03:15:10.360Z,9.67
2018-04-15T03:17:37.852Z,11.00
2018-04-15T03:20:06.092Z,11.50
2018-04-15T03:22:33.582Z,10.23
2018-04-15T03:25:01.854Z,18.50
2018-04-15T03:27:30.090Z,14.40
2018-04-15T03:29:57.548Z,11.50
2018-04-15T03:32:25.042Z,11.43
2018-04-15T03:34:52.510Z,15.30
2018-04-15T03:37:20.747Z,10.00
2018-04-15T03:39:48.231Z,11.10
2018-04-15T03:42:15.729Z,11.43
2018-04-15T03:44:43.189Z,17.73
2018-04-15T03:47:10.661Z,11.07
2018-04-15T03:49:38.132Z,9.77
2018-04-15T03:52:05.599Z,9.77
2018-04-15T03:54:33.074Z,10.30
2018-04-15T03:57:01.331Z,9.63
2018-04-15T03:59:28.802Z,9.03
2018-04-15T04:01:56.275Z,9.50
2018-04-15T04:04:23.785Z,10.13
2018-04-15T04:06:51.292Z,10.40
2018-04-15T04:09:18.772Z,12.43
2018-04-15T04:11:47.042Z,11.60
2018-04-15T04:14:15.276Z,10.00
2018-04-15T04:16:42.782Z,11.57
2018-04-15T04:19:22.919Z,13.27
2018-04-15T04:22:02.312Z,11.37
2018-04-15T04:24:42.635Z,9.07
2018-04-15T04:27:10.858Z,9.27
2018-04-15T04:29:38.321Z,13.57
2018-04-15T04:32:05.801Z,9.90
2018-04-15T04:34:33.264Z,12.60
2018-04-15T04:37:00.726Z,9.83
2018-04-15T04:39:28.216Z,9.63
2018-04-15T04:41:55.674Z,15.23
2018-04-15T04:44:23.138Z,9.90
2018-04-15T04:46:50.593Z,10.10
2018-04-15T04:49:18.155Z,8.43
2018-04-15T04:51:45.630Z,8.23
2018-04-15T04:54:13.116Z,11.67
2018-04-15T04:56:40.585Z,7.73
2018-04-15T04:59:08.048Z,5.97
2018-04-15T05:01:36.306Z,5.27
2018-04-15T05:04:03.807Z,6.90
2018-04-15T05:06:32.092Z,5.27
2018-04-15T05:09:00.328Z,4.40
2018-04-15T05:11:27.800Z,4.80
2018-04-15T05:13:55.317Z,5.30
2018-04-15T05:16:22.810Z,7.23
2018-04-15T05:18:50.281Z,3.87
2018-04-15T05:21:18.120Z,4.33
2018-04-15T05:23:45.597Z,3.80
2018-04-15T05:26:13.980Z,3.60
2018-04-15T05:28:42.360Z,7.80
2018-04-15T05:31:09.845Z,3.77
2018-04-15T05:33:38.064Z,3.67
2018-04-15T05:36:05.559Z,4.00
2018-04-15T05:38:33.040Z,5.53
2018-04-15T05:41:01.270Z,3.17
2018-04-15T05:43:28.761Z,3.23
2018-04-15T05:45:56.219Z,3.53
2018-04-15T05:48:25.467Z,4.90
2018-04-15T05:50:52.954Z,6.43
2018-04-15T05:53:20.629Z,4.43
2018-04-15T05:55:48.136Z,3.43
2018-04-15T05:58:15.668Z,4.07
2018-04-15T06:00:43.945Z,6.93
2018-04-15T06:03:12.228Z,36.80
2018-04-15T06:05:39.715Z,83.37
2018-04-15T06:08:07.236Z,51.83
2018-04-15T06:10:35.479Z,2.70
2018-04-15T06:13:03.019Z,2.33
2018-04-15T06:15:30.493Z,2.80
2018-04-15T06:17:58.871Z,2.07
2018-04-15T06:20:26.810Z,2.07
2018-04-15T06:22:54.292Z,2.40
2018-04-15T06:25:21.754Z,3.00
2018-04-15T06:27:49.246Z,2.10
2018-04-15T06:30:16.744Z,1.93
2018-04-15T06:32:44.227Z,2.20
2018-04-15T06:35:11.762Z,2.17
2018-04-15T06:37:39.251Z,2.00
2018-04-15T06:40:06.730Z,1.53
2018-04-15T06:42:34.300Z,1.90
2018-04-15T06:45:01.793Z,2.33
2018-04-15T06:47:29.285Z,1.60
2018-04-15T06:49:56.806Z,1.40
2018-04-15T06:52:25.040Z,1.30
2018-04-15T06:54:52.510Z,3.20
2018-04-15T06:57:19.980Z,2.50
2018-04-15T06:59:48.239Z,2.73
2018-04-15T07:02:15.720Z,1.63
2018-04-15T07:04:43.996Z,1.57
2018-04-15T07:07:12.274Z,1.00
2018-04-15T07:09:40.538Z,1.37
2018-04-15T07:12:08.012Z,1.80
2018-04-15T07:14:36.238Z,1.20
2018-04-15T07:17:03.736Z,1.90
2018-04-15T07:19:31.209Z,1.93
2018-04-15T07:21:59.440Z,3.80
2018-04-15T07:24:26.894Z,1.43
2018-04-15T07:26:54.406Z,3.67
2018-04-15T07:29:22.013Z,1.10
2018-04-15T07:31:49.509Z,2.40
2018-04-15T07:34:17.023Z,1.60
2018-04-15T07:36:44.503Z,1.55
2018-04-15T07:39:11.971Z,1.55
2018-04-15T07:41:39.519Z,1.23
2018-04-15T07:44:07.006Z,1.20
2018-04-15T07:46:34.482Z,1.92
2018-04-15T07:49:01.959Z,1.60
2018-04-15T07:51:29.444Z,1.37
2018-04-15T07:53:56.905Z,2.30
2018-04-15T07:56:24.418Z,1.90
2018-04-15T07:58:52.656Z,2.53
2018-04-15T08:01:20.173Z,2.17
2018-04-15T08:03:47.654Z,1.83
2018-04-15T08:06:15.312Z,1.83
2018-04-15T08:08:42.782Z,1.55
2018-04-15T08:11:10.308Z,2.25
2018-04-15T08:13:37.780Z,1.40
2018-04-15T08:16:05.240Z,4.93
2018-04-15T08:18:32.722Z,2.85
2018-04-15T08:21:00.226Z,8.10
2018-04-15T08:23:28.466Z,1.50
2018-04-15T08:25:55.975Z,1.35
2018-04-15T08:28:23.617Z,1.77
2018-04-15T08:30:51.085Z,1.33
2018-04-15T08:33:18.636Z,1.10
2018-04-15T08:35:46.917Z,1.50
2018-04-15T08:38:15.167Z,1.30
2018-04-15T08:40:42.665Z,1.40
2018-04-15T08:43:10.168Z,1.30
2018-04-15T08:45:37.713Z,1.60
2018-04-15T08:48:05.281Z,1.80
2018-04-15T08:50:33.639Z,1.50
2018-04-15T08:53:01.109Z,1.75
2018-04-15T08:55:28.628Z,2.97
2018-04-15T08:57:56.911Z,1.33
2018-04-15T09:00:25.177Z,5.13
2018-04-15T09:02:53.414Z,2.03
2018-04-15T09:05:20.930Z,1.70
2018-04-15T09:07:48.418Z,1.90
2018-04-15T09:10:15.897Z,1.80
2018-04-15T09:12:43.436Z,1.57
2018-04-15T09:15:10.918Z,1.77
2018-04-15T09:17:38.382Z,2.63
2018-04-15T09:20:05.845Z,2.10
2018-04-15T09:22:33.322Z,1.80
2018-04-15T09:25:01.582Z,2.40
2018-04-15T09:27:29.114Z,3.63
2018-04-15T09:29:56.588Z,1.80
2018-04-15T09:32:24.075Z,2.30
2018-04-15T09:34:52.516Z,1.90
2018-04-15T09:37:20.023Z,2.03
2018-04-15T09:39:48.261Z,1.92
2018-04-15T09:42:15.764Z,1.95
2018-04-15T09:44:43.245Z,1.70
2018-04-15T09:47:10.725Z,1.08
2018-04-15T09:49:38.197Z,1.08
2018-04-15T09:52:05.892Z,1.45
2018-04-15T09:54:34.198Z,1.23
2018-04-15T09:57:01.671Z,1.60
2018-04-15T09:59:29.153Z,1.30
2018-04-15T10:01:56.631Z,4.05
2018-04-15T10:04:24.119Z,1.65
2018-04-15T10:06:52.344Z,1.55
2018-04-15T10:09:19.836Z,2.37
2018-04-15T10:11:47.293Z,1.40
2018-04-15T10:14:15.665Z,1.42
2018-04-15T10:16:45.456Z,1.10
2018-04-15T10:19:12.980Z,1.20
2018-04-15T10:21:40.486Z,1.20
2018-04-15T10:24:08.086Z,1.33
2018-04-15T10:26:36.483Z,1.42
2018-04-15T10:29:04.874Z,1.62
2018-04-15T10:31:32.360Z,1.40
2018-04-15T10:33:59.835Z,1.17
2018-04-15T10:36:27.300Z,1.35
2018-04-15T10:38:55.595Z,1.33
2018-04-15T10:41:23.848Z,0.90
2018-04-15T10:43:53.390Z,1.25
2018-04-15T10:46:21.219Z,1.33
2018-04-15T10:48:48.696Z,0.98
2018-04-15T10:51:20.237Z,1.55
2018-04-15T10:53:47.828Z,2.67
2018-04-15T10:56:15.348Z,1.15
2018-04-15T10:58:42.829Z,1.20
2018-04-15T11:01:11.120Z,0.95
2018-04-15T11:03:39.357Z,1.42
2018-04-15T11:06:06.855Z,3.03
2018-04-15T11:08:35.117Z,1.92
2018-04-15T11:11:03.383Z,1.87
2018-04-15T11:13:31.705Z,1.50
2018-04-15T11:15:59.178Z,2.45
2018-04-15T11:18:26.715Z,2.40
2018-04-15T11:20:54.190Z,1.60
2018-04-15T11:23:21.771Z,1.50
2018-04-15T11:25:49.234Z,1.30
2018-04-15T11:28:17.481Z,1.80
2018-04-15T11:30:44.961Z,2.47
2018-04-15T11:33:12.438Z,4.90
2018-04-15T11:35:39.921Z,1.77
2018-04-15T11:38:08.160Z,2.10
2018-04-15T11:40:35.700Z,4.50
2018-04-15T11:43:03.305Z,3.50
2018-04-15T11:45:30.774Z,1.47
2018-04-15T11:47:59.104Z,1.43
2018-04-15T11:50:26.597Z,1.60
2018-04-15T11:52:54.157Z,1.73
2018-04-15T11:55:21.626Z,1.63
2018-04-15T11:57:49.148Z,1.57
2018-04-15T12:00:16.665Z,2.10
2018-04-15T12:02:44.203Z,1.93
2018-04-15T12:05:11.673Z,2.27
2018-04-15T12:07:39.928Z,2.13
2018-04-15T12:10:07.481Z,1.80
2018-04-15T12:12:34.932Z,1.57
2018-04-15T12:15:02.454Z,1.33
2018-04-15T12:17:30.040Z,1.77
2018-04-15T12:19:57.505Z,1.40
2018-04-15T12:22:25.085Z,1.57
2018-04-15T12:24:52.569Z,1.83
2018-04-15T12:27:20.799Z,1.20
2018-04-15T12:29:48.308Z,2.07
2018-04-15T12:32:16.544Z,2.07
2018-04-15T12:34:44.831Z,1.40
2018-04-15T12:37:12.350Z,3.50
2018-04-15T12:39:39.877Z,2.37
2018-04-15T12:42:08.110Z,2.33
2018-04-15T12:44:35.597Z,2.10
2018-04-15T12:47:03.061Z,1.60
2018-04-15T12:49:30.589Z,2.10
2018-04-15T12:51:58.079Z,1.33
2018-04-15T12:54:25.581Z,1.47
2018-04-15T12:56:53.071Z,4.27
2018-04-15T12:59:20.597Z,1.57
2018-04-15T13:01:48.090Z,4.17
2018-04-15T13:04:15.563Z,2.43
2018-04-15T13:06:43.041Z,1.63
2018-04-15T13:09:10.540Z,1.47
2018-04-15T13:11:38.016Z,1.60
2018-04-15T13:14:05.480Z,2.50
2018-04-15T13:16:32.961Z,1.73
2018-04-15T13:19:00.427Z,1.60
2018-04-15T13:21:28.701Z,1.97
2018-04-15T13:23:56.994Z,7.07
2018-04-15T13:26:25.236Z,1.57
2018-04-15T13:28:52.801Z,2.60
2018-04-15T13:31:20.241Z,2.10
2018-04-15T13:33:47.832Z,1.53
2018-04-15T13:36:15.304Z,3.13
2018-04-15T13:38:43.548Z,5.03
2018-04-15T13:41:11.021Z,1.93
2018-04-15T13:43:38.500Z,1.90
2018-04-15T13:46:06.750Z,2.70
2018-04-15T13:48:34.259Z,2.03
2018-04-15T13:51:01.731Z,1.93
2018-04-15T13:53:29.264Z,2.60
2018-04-15T13:55:57.544Z,2.07
2018-04-15T13:58:25.779Z,3.50
2018-04-15T14:00:53.253Z,2.33
2018-04-15T14:03:20.730Z,2.90
2018-04-15T14:05:49.501Z,2.40
2018-04-15T14:08:17.782Z,6.43
2018-04-15T14:10:45.288Z,3.03
2018-04-15T14:13:12.765Z,4.53
2018-04-15T14:15:40.258Z,2.43
2018-04-15T14:18:08.035Z,2.30
2018-04-15T14:20:36.311Z,3.40
2018-04-15T14:23:04.536Z,2.80
2018-04-15T14:25:32.052Z,2.50
2018-04-15T14:27:59.549Z,2.40
2018-04-15T14:30:27.049Z,2.40
2018-04-15T14:32:54.518Z,3.37
2018-04-15T14:35:22.856Z,3.40
2018-04-15T14:37:50.396Z,3.00
2018-04-15T14:40:17.921Z,2.87
2018-04-15T14:42:46.169Z,2.17
2018-04-15T14:45:13.677Z,7.10
2018-04-15T14:47:41.896Z,5.80
2018-04-15T14:50:09.434Z,3.00
2018-04-15T14:52:37.659Z,2.20
2018-04-15T14:55:05.225Z,3.23
2018-04-15T14:57:32.776Z,3.67
2018-04-15T15:00:00.549Z,2.47
2018-04-15T15:02:28.162Z,2.43
2018-04-15T15:04:55.629Z,2.57
2018-04-15T15:07:23.102Z,3.13
2018-04-15T15:09:50.626Z,3.20
2018-04-15T15:12:18.115Z,2.40
2018-04-15T15:14:45.586Z,3.37
2018-04-15T15:17:13.069Z,2.00
2018-04-15T15:19:41.631Z,2.10
2018-04-15T15:22:10.369Z,2.90
2018-04-15T15:24:37.919Z,2.47
2018-04-15T15:27:06.262Z,2.17
2018-04-15T15:29:33.886Z,2.63
2018-04-15T15:32:01.397Z,2.70
2018-04-15T15:34:28.898Z,4.30
2018-04-15T15:36:56.550Z,2.43
2018-04-15T15:39:24.070Z,2.40
2018-04-15T15:41:51.545Z,2.20
2018-04-15T15:44:19.029Z,3.17
2018-04-15T15:46:46.527Z,4.70
2018-04-15T15:49:14.029Z,2.70
2018-04-15T15:51:43.081Z,2.00
2018-04-15T15:54:21.132Z,2.30
2018-04-15T15:56:57.394Z,3.40
2018-04-15T15:59:32.414Z,2.03
2018-04-15T16:02:10.349Z,2.00
2018-04-15T16:07:24.355Z,3.20
2018-04-15T16:10:09.141Z,2.70
2018-04-15T16:15:49.387Z,2.77
2018-04-15T16:21:19.255Z,3.07
2018-04-15T16:27:16.162Z,7.13
2018-04-15T16:29:46.647Z,3.50
2018-04-15T16:32:21.116Z,3.80
2018-04-15T16:34:50.619Z,3.60
2018-04-15T16:37:20.589Z,2.80
2018-04-15T16:42:31.937Z,3.63
2018-04-15T16:45:01.549Z,4.03
2018-04-15T16:47:30.079Z,2.63
2018-04-15T16:49:59.690Z,2.23
2018-04-15T16:52:32.374Z,2.63
2018-04-15T16:55:01.007Z,3.10
2018-04-15T16:57:33.521Z,3.80
2018-04-15T17:00:06.235Z,3.40
2018-04-15T17:02:38.887Z,3.33
2018-04-15T17:05:10.800Z,4.57
2018-04-15T17:07:39.543Z,3.63
2018-04-15T17:10:08.894Z,5.27
2018-04-15T17:12:36.557Z,3.40
2018-04-15T17:15:06.258Z,3.00
2018-04-15T17:17:36.492Z,2.43
2018-04-15T17:20:08.952Z,3.23
2018-04-15T17:22:43.532Z,4.10
2018-04-15T17:25:20.850Z,3.30
2018-04-15T17:27:49.241Z,2.27
2018-04-15T17:30:22.662Z,2.67
2018-04-15T17:32:51.657Z,2.70
2018-04-15T17:35:21.193Z,2.80
2018-04-15T17:37:49.265Z,2.83
2018-04-15T17:40:21.209Z,3.70
2018-04-15T17:42:50.494Z,8.53
2018-04-15T17:45:20.819Z,6.27
2018-04-15T17:47:52.854Z,4.70
2018-04-15T17:50:29.221Z,2.73
2018-04-15T17:52:59.007Z,3.40
2018-04-15T17:58:07.089Z,3.33
2018-04-15T18:00:34.591Z,2.70
2018-04-15T18:03:02.233Z,3.90
2018-04-15T18:05:29.730Z,3.80
2018-04-15T18:07:57.205Z,14.07
2018-04-15T18:10:24.681Z,4.93
2018-04-15T18:12:52.153Z,5.87
2018-04-15T18:15:19.643Z,3.97
2018-04-15T18:17:47.177Z,5.20
2018-04-15T18:20:14.793Z,8.13
2018-04-15T18:22:42.277Z,63.10
2018-04-15T18:25:10.602Z,61.63
2018-04-15T18:27:38.281Z,13.87
2018-04-15T18:30:07.831Z,7.00
2018-04-15T18:32:35.387Z,6.03
2018-04-15T18:35:02.918Z,6.27
2018-04-15T18:37:30.433Z,3.83
2018-04-15T18:39:57.936Z,3.83
2018-04-15T18:42:25.489Z,4.83
2018-04-15T18:44:53.199Z,3.93
2018-04-15T18:47:20.652Z,4.43
2018-04-15T18:49:48.124Z,6.13
2018-04-15T18:52:16.694Z,21.33
2018-04-15T18:54:44.195Z,6.53
2018-04-15T18:57:11.698Z,6.23
2018-04-15T18:59:39.289Z,5.27
2018-04-15T19:02:06.805Z,6.73
2018-04-15T19:04:34.543Z,4.73
2018-04-15T19:07:02.035Z,5.77
2018-04-15T19:09:30.442Z,10.03
2018-04-15T19:11:57.972Z,7.10
2018-04-15T19:14:25.557Z,7.73
2018-04-15T19:16:53.827Z,7.97
2018-04-15T19:19:22.782Z,6.50
2018-04-15T19:21:50.253Z,6.07
2018-04-15T19:24:17.736Z,7.50
2018-04-15T19:26:46.003Z,9.60
2018-04-15T19:29:13.679Z,7.87
2018-04-15T19:31:42.035Z,6.20
2018-04-15T19:34:09.579Z,5.97
2018-04-15T19:36:37.164Z,6.13
2018-04-15T19:39:04.794Z,5.90
2018-04-15T19:41:35.157Z,5.90
2018-04-15T19:44:03.444Z,6.30
2018-04-15T19:46:31.694Z,10.70
2018-04-15T19:48:59.186Z,5.87
2018-04-15T19:51:27.464Z,5.43
2018-04-15T19:53:55.704Z,4.87
2018-04-15T19:56:23.197Z,5.30
2018-04-15T19:58:51.475Z,5.73
2018-04-15T20:01:19.729Z,5.50
2018-04-15T20:03:47.237Z,5.73
2018-04-15T20:06:14.738Z,5.30
2018-04-15T20:08:42.206Z,6.70
2018-04-15T20:11:09.857Z,6.00
2018-04-15T20:13:37.407Z,7.60
2018-04-15T20:16:05.096Z,7.80
2018-04-15T20:18:33.487Z,10.20
2018-04-15T20:21:01.919Z,8.57
2018-04-15T20:23:29.407Z,7.10
2018-04-15T20:25:58.414Z,8.97
2018-04-15T20:28:25.909Z,7.67
2018-04-15T20:30:53.390Z,8.13
2018-04-15T20:33:20.879Z,9.20
2018-04-15T20:35:48.366Z,8.37
2018-04-15T20:38:16.613Z,8.20
2018-04-15T20:40:44.129Z,11.83
2018-04-15T20:43:11.621Z,10.47
2018-04-15T20:45:39.115Z,10.47
2018-04-15T20:48:07.537Z,12.17
2018-04-15T20:50:35.031Z,13.97
2018-04-15T20:53:02.532Z,14.03
2018-04-15T20:55:30.018Z,10.23
2018-04-15T20:57:57.484Z,8.40
2018-04-15T21:00:24.971Z,7.47
2018-04-15T21:02:52.454Z,7.03
2018-04-15T21:05:19.922Z,6.97
2018-04-15T21:07:47.385Z,8.37
2018-04-15T21:10:14.864Z,12.43
2018-04-15T21:12:42.329Z,8.20
2018-04-15T21:15:09.811Z,6.30
2018-04-15T21:17:37.291Z,6.17
2018-04-15T21:20:04.770Z,6.43
2018-04-15T21:22:32.236Z,5.03
2018-04-15T21:24:59.697Z,5.70
2018-04-15T21:27:27.508Z,5.03
2018-04-15T21:29:54.980Z,9.10
2018-04-15T21:32:22.437Z,4.80
2018-04-15T21:34:49.945Z,5.23
2018-04-15T21:37:17.411Z,5.33
2018-04-15T21:39:44.905Z,5.17
2018-04-15T21:42:12.376Z,5.53
2018-04-15T21:44:39.862Z,4.73
2018-04-15T21:47:07.347Z,6.67
2018-04-15T21:49:34.834Z,5.30
2018-04-15T21:52:02.341Z,4.73
2018-04-15T21:54:32.729Z,5.80
2018-04-15T21:57:00.216Z,4.60
2018-04-15T21:59:28.468Z,5.10
2018-04-15T22:01:55.949Z,6.80
2018-04-15T22:04:24.197Z,4.80
2018-04-15T22:06:51.736Z,5.97
2018-04-15T22:09:19.202Z,5.40
2018-04-15T22:11:58.734Z,4.80
2018-04-15T22:14:26.226Z,6.57
2018-04-15T22:16:53.832Z,5.50
2018-04-15T22:19:21.322Z,5.83
2018-04-15T22:21:48.850Z,5.57
2018-04-15T22:24:16.374Z,5.97
2018-04-15T22:26:44.637Z,8.50
2018-04-15T22:29:12.107Z,6.63
2018-04-15T22:31:39.609Z,6.53
2018-04-15T22:34:07.078Z,6.27
2018-04-15T22:36:34.690Z,7.67
2018-04-15T22:39:02.973Z,5.57
2018-04-15T22:41:31.281Z,8.53
2018-04-15T22:43:58.763Z,6.97
2018-04-15T22:46:26.304Z,7.40
2018-04-15T22:48:56.729Z,7.30
2018-04-15T22:51:24.255Z,7.27
2018-04-15T22:53:51.725Z,6.47
2018-04-15T22:56:19.979Z,5.60
2018-04-15T22:58:47.448Z,6.77
2018-04-15T23:01:15.699Z,5.93
2018-04-15T23:03:43.174Z,8.10
2018-04-15T23:06:10.680Z,7.10
2018-04-15T23:08:38.155Z,8.20
2018-04-15T23:11:05.619Z,14.73
2018-04-15T23:13:33.105Z,5.73
2018-04-15T23:16:01.189Z,6.23
2018-04-15T23:18:29.454Z,6.17
2018-04-15T23:20:56.925Z,6.20
2018-04-15T23:23:25.172Z,5.23
2018-04-15T23:25:52.709Z,5.90
2018-04-15T23:28:20.224Z,5.90
2018-04-15T23:30:48.452Z,8.03
2018-04-15T23:33:15.917Z,5.70
2018-04-15T23:35:43.392Z,7.37
2018-04-15T23:38:10.923Z,7.97
2018-04-15T23:40:38.391Z,9.73
2018-04-15T23:43:05.843Z,6.43
2018-04-15T23:45:33.312Z,6.10
2018-04-15T23:48:00.782Z,6.30
2018-04-15T23:50:29.067Z,5.20
2018-04-15T23:52:56.545Z,5.13
2018-04-15T23:55:24.782Z,5.43
2018-04-15T23:57:52.327Z,5.10
